createdAt,value
2023-04-15T00:01:07.847Z,4.03
2023-04-15T00:03:35.074Z,5.00
2023-04-15T00:06:02.432Z,4.18
2023-04-15T00:08:30.115Z,5.22
2023-04-15T00:10:56.826Z,4.03
2023-04-15T00:13:23.652Z,4.55
2023-04-15T00:15:50.296Z,5.15
2023-04-15T00:18:16.950Z,4.43
2023-04-15T00:20:43.542Z,3.88
2023-04-15T00:23:10.119Z,4.30
2023-04-15T00:25:36.804Z,4.40
2023-04-15T00:28:03.994Z,4.07
2023-04-15T00:30:31.451Z,4.18
2023-04-15T00:32:58.228Z,4.32
2023-04-15T00:35:25.515Z,4.25
2023-04-15T00:37:52.183Z,4.38
2023-04-15T00:40:21.050Z,3.85
2023-04-15T00:42:47.916Z,6.18
2023-04-15T00:45:14.598Z,4.28
2023-04-15T00:47:43.075Z,4.35
2023-04-15T00:50:11.171Z,4.35
2023-04-15T00:52:38.278Z,4.20
2023-04-15T00:55:06.060Z,4.25
2023-04-15T00:57:33.315Z,5.28
2023-04-15T01:00:01.141Z,4.15
2023-04-15T01:02:28.191Z,5.78
2023-04-15T01:04:56.756Z,4.32
2023-04-15T01:07:23.430Z,4.43
2023-04-15T01:09:50.247Z,4.25
2023-04-15T01:12:17.625Z,4.05
2023-04-15T01:14:44.379Z,4.63
2023-04-15T01:17:11.270Z,4.57
2023-04-15T01:19:40.608Z,4.80
2023-04-15T01:22:09.213Z,4.93
2023-04-15T01:24:38.345Z,4.50
2023-04-15T01:27:05.424Z,4.40
2023-04-15T01:29:33.305Z,4.93
2023-04-15T01:32:00.292Z,4.75
2023-04-15T01:34:27.439Z,4.63
2023-04-15T01:36:54.384Z,4.40
2023-04-15T01:39:21.814Z,5.25
2023-04-15T01:41:48.646Z,5.50
2023-04-15T01:44:16.446Z,5.07
2023-04-15T01:46:43.150Z,4.75
2023-04-15T01:49:09.808Z,5.78
2023-04-15T01:51:36.463Z,5.70
2023-04-15T01:54:03.194Z,9.07
2023-04-15T01:56:30.160Z,5.57
2023-04-15T01:58:56.992Z,5.40
2023-04-15T02:01:23.866Z,6.85
2023-04-15T02:03:50.781Z,6.80
2023-04-15T02:06:18.380Z,6.57
2023-04-15T02:08:45.206Z,7.18
2023-04-15T02:11:11.997Z,6.70
2023-04-15T02:13:38.660Z,7.30
2023-04-15T02:16:15.804Z,7.38
2023-04-15T02:18:45.260Z,8.20
2023-04-15T02:21:11.855Z,8.88
2023-04-15T02:23:38.534Z,7.45
2023-04-15T02:26:05.243Z,9.05
2023-04-15T02:28:31.879Z,9.23
2023-04-15T02:30:59.876Z,8.38
2023-04-15T02:33:26.605Z,9.45
2023-04-15T02:35:53.259Z,9.43
2023-04-15T02:38:19.970Z,10.40
2023-04-15T02:40:49.603Z,10.43
2023-04-15T02:43:17.227Z,10.88
2023-04-15T02:45:45.174Z,12.48
2023-04-15T02:48:11.835Z,12.52
2023-04-15T02:50:41.506Z,12.75
2023-04-15T02:53:10.262Z,13.35
2023-04-15T02:55:36.939Z,13.20
2023-04-15T02:58:03.773Z,13.73
2023-04-15T03:00:30.538Z,14.63
2023-04-15T03:03:05.581Z,15.07
2023-04-15T03:05:32.602Z,15.13
2023-04-15T03:08:01.285Z,17.15
2023-04-15T03:10:28.456Z,15.60
2023-04-15T03:12:55.159Z,16.65
2023-04-15T03:15:23.722Z,16.77
2023-04-15T03:17:52.868Z,18.73
2023-04-15T03:20:19.876Z,17.95
2023-04-15T03:22:47.984Z,21.05
2023-04-15T03:25:14.830Z,21.33
2023-04-15T03:27:41.890Z,21.77
2023-04-15T03:30:09.338Z,21.58
2023-04-15T03:32:38.320Z,21.08
2023-04-15T03:35:06.801Z,20.25
2023-04-15T03:37:33.385Z,22.38
2023-04-15T03:40:00.140Z,22.58
2023-04-15T03:42:27.034Z,21.33
2023-04-15T03:44:53.611Z,22.95
2023-04-15T03:47:20.459Z,22.52
2023-04-15T03:49:47.258Z,20.30
2023-04-15T03:52:13.944Z,21.70
2023-04-15T03:54:40.514Z,21.52
2023-04-15T03:57:07.185Z,22.83
2023-04-15T03:59:33.774Z,20.55
2023-04-15T04:02:00.473Z,22.48
2023-04-15T04:04:27.193Z,22.55
2023-04-15T04:06:53.896Z,23.30
2023-04-15T04:09:20.604Z,22.83
2023-04-15T04:11:47.245Z,26.30
2023-04-15T04:14:13.816Z,23.58
2023-04-15T04:16:40.610Z,28.13
2023-04-15T04:19:07.664Z,25.00
2023-04-15T04:21:34.587Z,26.17
2023-04-15T04:24:01.626Z,28.67
2023-04-15T04:26:28.291Z,26.15
2023-04-15T04:28:54.923Z,29.45
2023-04-15T04:31:21.909Z,30.60
2023-04-15T04:33:48.565Z,29.25
2023-04-15T04:36:15.134Z,32.88
2023-04-15T04:38:41.808Z,35.45
2023-04-15T04:41:08.436Z,34.38
2023-04-15T04:43:35.040Z,31.65
2023-04-15T04:46:01.835Z,29.48
2023-04-15T04:48:28.516Z,32.70
2023-04-15T04:50:55.209Z,31.15
2023-04-15T04:53:22.086Z,32.72
2023-04-15T04:55:48.666Z,32.70
2023-04-15T04:58:15.285Z,33.10
2023-04-15T05:00:42.122Z,32.05
2023-04-15T05:03:09.103Z,31.38
2023-04-15T05:05:37.030Z,32.50
2023-04-15T05:08:04.091Z,33.80
2023-04-15T05:10:30.728Z,31.45
2023-04-15T05:12:57.747Z,32.35
2023-04-15T05:15:24.704Z,33.25
2023-04-15T05:17:51.660Z,35.83
2023-04-15T05:20:18.446Z,33.03
2023-04-15T05:22:45.086Z,35.03
2023-04-15T05:25:12.437Z,35.83
2023-04-15T05:27:39.134Z,35.92
2023-04-15T05:30:07.264Z,34.63
2023-04-15T05:32:33.931Z,38.75
2023-04-15T05:35:00.661Z,37.63
2023-04-15T05:37:27.266Z,38.40
2023-04-15T05:39:53.930Z,39.08
2023-04-15T05:42:20.879Z,40.85
2023-04-15T05:44:47.544Z,39.28
2023-04-15T05:47:14.137Z,41.78
2023-04-15T05:49:40.850Z,42.35
2023-04-15T05:52:07.529Z,42.63
2023-04-15T05:54:34.182Z,40.58
2023-04-15T05:57:00.964Z,40.47
2023-04-15T05:59:28.430Z,42.55
2023-04-15T06:01:55.265Z,40.35
2023-04-15T06:04:22.862Z,41.40
2023-04-15T06:06:49.620Z,40.45
2023-04-15T06:09:16.874Z,42.55
2023-04-15T06:11:43.549Z,38.55
2023-04-15T06:14:10.219Z,43.35
2023-04-15T06:16:37.473Z,45.90
2023-04-15T06:19:04.269Z,44.70
2023-04-15T06:21:31.620Z,43.20
2023-04-15T06:24:01.469Z,42.60
2023-04-15T06:26:28.396Z,43.50
2023-04-15T06:28:55.768Z,40.97
2023-04-15T06:31:22.741Z,46.25
2023-04-15T06:33:49.529Z,45.22
2023-04-15T06:36:16.373Z,42.63
2023-04-15T06:38:43.052Z,42.30
2023-04-15T06:41:09.766Z,39.35
2023-04-15T06:43:36.435Z,39.85
2023-04-15T06:46:03.063Z,41.28
2023-04-15T06:48:29.734Z,44.08
2023-04-15T06:50:56.562Z,40.90
2023-04-15T06:53:23.179Z,40.58
2023-04-15T06:55:49.794Z,43.08
2023-04-15T06:58:16.410Z,41.92
2023-04-15T07:00:43.140Z,40.72
2023-04-15T07:03:11.263Z,42.72
2023-04-15T07:05:38.404Z,39.85
2023-04-15T07:08:06.796Z,43.63
2023-04-15T07:10:34.382Z,46.67
2023-04-15T07:13:01.833Z,44.53
2023-04-15T07:15:28.796Z,45.67
2023-04-15T07:17:56.245Z,43.97
2023-04-15T07:20:23.184Z,42.63
2023-04-15T07:22:49.854Z,50.03
2023-04-15T07:25:17.716Z,47.00
2023-04-15T07:27:44.586Z,45.03
2023-04-15T07:30:12.559Z,48.90
2023-04-15T07:32:39.480Z,47.05
2023-04-15T07:35:06.472Z,46.60
2023-04-15T07:37:33.626Z,43.88
2023-04-15T07:40:00.375Z,44.85
2023-04-15T07:42:27.601Z,42.45
2023-04-15T07:44:54.269Z,45.95
2023-04-15T07:47:21.327Z,42.88
2023-04-15T07:49:48.080Z,45.80
2023-04-15T07:52:14.841Z,45.45
2023-04-15T07:54:41.753Z,45.67
2023-04-15T07:57:08.746Z,44.28
2023-04-15T07:59:35.398Z,46.22
2023-04-15T08:02:03.355Z,45.53
2023-04-15T08:04:30.219Z,47.63
2023-04-15T08:06:57.999Z,45.25
2023-04-15T08:09:24.716Z,48.28
2023-04-15T08:11:53.259Z,46.92
2023-04-15T08:14:19.913Z,48.15
2023-04-15T08:16:46.946Z,48.78
2023-04-15T08:19:13.664Z,50.53
2023-04-15T08:21:41.047Z,51.25
2023-04-15T08:24:08.104Z,47.47
2023-04-15T08:26:34.766Z,49.25
2023-04-15T08:29:01.748Z,50.90
2023-04-15T08:31:30.439Z,52.28
2023-04-15T08:33:57.790Z,53.80
2023-04-15T08:36:24.423Z,53.83
2023-04-15T08:38:51.191Z,50.22
2023-04-15T08:41:23.712Z,56.65
2023-04-15T08:43:54.760Z,50.00
2023-04-15T08:46:22.039Z,56.03
2023-04-15T08:48:49.739Z,56.63
2023-04-15T08:51:17.657Z,52.78
2023-04-15T08:53:46.554Z,54.25
2023-04-15T08:56:16.757Z,56.72
2023-04-15T08:58:47.102Z,53.28
2023-04-15T09:01:13.938Z,52.75
2023-04-15T09:03:41.741Z,56.60
2023-04-15T09:06:08.743Z,55.10
2023-04-15T09:08:35.887Z,52.00
2023-04-15T09:11:03.286Z,53.15
2023-04-15T09:13:30.556Z,51.83
2023-04-15T09:16:00.096Z,50.25
2023-04-15T09:18:36.057Z,47.00
2023-04-15T09:21:11.305Z,43.47
2023-04-15T09:23:40.008Z,43.50
2023-04-15T09:26:07.146Z,42.08
2023-04-15T09:28:41.021Z,43.78
2023-04-15T09:31:07.856Z,39.80
2023-04-15T09:33:34.579Z,37.95
2023-04-15T09:36:02.140Z,40.05
2023-04-15T09:38:29.259Z,35.67
2023-04-15T09:40:56.082Z,36.05
2023-04-15T09:43:23.137Z,35.08
2023-04-15T09:45:52.435Z,34.33
2023-04-15T09:48:27.038Z,33.90
2023-04-15T09:50:54.066Z,30.98
2023-04-15T09:53:22.667Z,31.33
2023-04-15T09:55:55.275Z,32.42
2023-04-15T09:58:23.572Z,33.17
2023-04-15T10:00:52.135Z,33.47
2023-04-15T10:03:30.052Z,31.33
2023-04-15T10:05:58.916Z,35.33
2023-04-15T10:08:30.523Z,30.77
2023-04-15T10:10:57.927Z,27.88
2023-04-15T10:13:26.306Z,34.38
2023-04-15T10:15:53.555Z,26.63
2023-04-15T10:18:21.971Z,26.02
2023-04-15T10:20:49.102Z,25.10
2023-04-15T10:23:17.383Z,26.25
2023-04-15T10:25:46.178Z,23.35
2023-04-15T10:28:14.364Z,25.17
2023-04-15T10:30:41.806Z,23.08
2023-04-15T10:33:11.161Z,26.08
2023-04-15T10:35:39.308Z,22.98
2023-04-15T10:38:30.854Z,23.52
2023-04-15T10:41:12.772Z,21.08
2023-04-15T10:43:39.603Z,21.67
2023-04-15T10:46:06.709Z,22.85
2023-04-15T10:48:33.588Z,16.50
2023-04-15T10:51:03.826Z,17.67
2023-04-15T10:53:31.416Z,15.40
2023-04-15T10:55:58.766Z,17.38
2023-04-15T10:58:26.095Z,16.60
2023-04-15T11:00:53.815Z,16.85
2023-04-15T11:03:40.566Z,17.10
2023-04-15T11:06:07.591Z,18.20
2023-04-15T11:09:02.542Z,17.75
2023-04-15T11:12:08.361Z,18.33
2023-04-15T11:14:39.655Z,17.75
2023-04-15T11:17:06.340Z,17.92
2023-04-15T11:19:38.028Z,18.95
2023-04-15T11:22:09.094Z,18.90
2023-04-15T11:24:36.794Z,17.65
2023-04-15T11:27:03.561Z,18.02
2023-04-15T11:29:34.538Z,18.17
2023-04-15T11:32:09.940Z,17.52
2023-04-15T11:34:37.093Z,17.63
2023-04-15T11:37:07.903Z,15.93
2023-04-15T11:39:34.606Z,16.77
2023-04-15T11:42:01.264Z,17.83
2023-04-15T11:44:27.984Z,16.60
2023-04-15T11:46:55.824Z,18.15
2023-04-15T11:49:33.944Z,17.50
2023-04-15T11:52:01.258Z,19.17
2023-04-15T11:54:27.896Z,16.85
2023-04-15T11:56:54.697Z,15.85
2023-04-15T11:59:21.376Z,17.40
2023-04-15T12:01:48.070Z,15.88
2023-04-15T12:04:17.765Z,17.70
2023-04-15T12:06:45.149Z,15.98
2023-04-15T12:09:20.208Z,18.05
2023-04-15T12:11:47.839Z,16.95
2023-04-15T12:14:26.600Z,15.88
2023-04-15T12:16:56.643Z,17.58
2023-04-15T12:19:29.437Z,17.48
2023-04-15T12:22:01.905Z,17.20
2023-04-15T12:24:31.998Z,16.65
2023-04-15T12:27:05.617Z,20.15
2023-04-15T12:29:33.200Z,17.58
2023-04-15T12:32:07.734Z,18.98
2023-04-15T12:34:38.676Z,18.75
2023-04-15T12:37:09.512Z,17.45
2023-04-15T12:39:37.783Z,17.58
2023-04-15T12:42:06.043Z,17.17
2023-04-15T12:44:33.660Z,18.50
2023-04-15T12:47:00.885Z,19.38
2023-04-15T12:49:28.176Z,17.58
2023-04-15T12:52:00.191Z,20.42
2023-04-15T12:54:27.835Z,16.50
2023-04-15T12:56:55.523Z,18.55
2023-04-15T12:59:24.145Z,16.20
2023-04-15T13:01:52.373Z,15.80
2023-04-15T13:04:20.106Z,18.10
2023-04-15T13:06:46.956Z,16.17
2023-04-15T13:09:13.938Z,16.55
2023-04-15T13:11:40.873Z,15.10
2023-04-15T13:14:09.235Z,18.95
2023-04-15T13:16:36.203Z,16.15
2023-04-15T13:19:04.139Z,15.43
2023-04-15T13:21:35.051Z,14.10
2023-04-15T13:24:02.492Z,14.10
2023-04-15T13:26:29.341Z,14.40
2023-04-15T13:28:56.337Z,14.48
2023-04-15T13:31:23.029Z,12.98
2023-04-15T13:33:49.693Z,13.77
2023-04-15T13:36:16.435Z,13.45
2023-04-15T13:38:43.193Z,12.43
2023-04-15T13:41:09.890Z,12.07
2023-04-15T13:43:36.685Z,13.02
2023-04-15T13:46:03.814Z,12.18
2023-04-15T13:48:30.650Z,11.15
2023-04-15T13:50:57.338Z,12.98
2023-04-15T13:53:38.150Z,12.07
2023-04-15T13:56:09.582Z,11.13
2023-04-15T13:58:40.885Z,13.00
2023-04-15T14:01:07.776Z,12.88
2023-04-15T14:03:36.423Z,12.55
2023-04-15T14:06:03.662Z,13.30
2023-04-15T14:08:30.783Z,13.35
2023-04-15T14:10:57.779Z,15.48
2023-04-15T14:13:24.633Z,11.98
2023-04-15T14:15:51.310Z,11.65
2023-04-15T14:18:17.929Z,11.20
2023-04-15T14:20:44.567Z,13.32
2023-04-15T14:23:11.187Z,12.93
2023-04-15T14:25:39.310Z,11.95
2023-04-15T14:28:06.289Z,14.50
2023-04-15T14:30:33.288Z,11.70
2023-04-15T14:33:00.168Z,12.25
2023-04-15T14:35:27.390Z,11.85
2023-04-15T14:37:55.522Z,12.48
2023-04-15T14:40:22.473Z,11.95
2023-04-15T14:42:49.314Z,13.30
2023-04-15T14:45:16.258Z,11.95
2023-04-15T14:47:43.026Z,12.63
2023-04-15T14:50:10.501Z,11.10
2023-04-15T14:52:39.997Z,13.02
2023-04-15T14:55:08.193Z,11.00
2023-04-15T14:57:34.899Z,12.07
2023-04-15T15:00:01.813Z,12.52
2023-04-15T15:02:38.563Z,13.00
2023-04-15T15:05:07.375Z,13.27
2023-04-15T15:07:34.224Z,13.05
2023-04-15T15:10:00.900Z,11.23
2023-04-15T15:12:27.610Z,12.93
2023-04-15T15:14:55.385Z,13.15
2023-04-15T15:17:22.211Z,12.15
2023-04-15T15:19:49.068Z,11.55
2023-04-15T15:22:15.689Z,11.82
2023-04-15T15:24:42.310Z,13.63
2023-04-15T15:27:08.947Z,12.27
2023-04-15T15:29:35.652Z,13.27
2023-04-15T15:32:02.271Z,13.30
2023-04-15T15:34:28.904Z,11.95
2023-04-15T15:36:56.827Z,13.15
2023-04-15T15:39:23.945Z,13.32
2023-04-15T15:41:50.610Z,13.98
2023-04-15T15:44:17.390Z,12.57
2023-04-15T15:46:44.179Z,13.68
2023-04-15T15:49:11.380Z,13.95
2023-04-15T15:51:38.144Z,15.20
2023-04-15T15:54:04.797Z,14.63
2023-04-15T15:56:31.489Z,15.40
2023-04-15T15:58:58.102Z,13.35
2023-04-15T16:01:24.810Z,16.65
2023-04-15T16:03:51.715Z,15.85
2023-04-15T16:06:18.536Z,16.27
2023-04-15T16:08:45.158Z,15.93
2023-04-15T16:11:11.797Z,16.80
2023-04-15T16:13:38.778Z,17.40
2023-04-15T16:16:05.734Z,16.75
2023-04-15T16:18:34.605Z,17.58
2023-04-15T16:21:02.010Z,18.38
2023-04-15T16:23:28.738Z,20.15
2023-04-15T16:25:55.421Z,17.77
2023-04-15T16:28:26.816Z,20.33
2023-04-15T16:30:55.099Z,20.90
2023-04-15T16:33:21.847Z,19.17
2023-04-15T16:35:48.468Z,23.50
2023-04-15T16:38:15.585Z,23.50
2023-04-15T16:40:42.488Z,21.48
2023-04-15T16:43:11.243Z,18.90
2023-04-15T16:45:38.733Z,21.83
2023-04-15T16:48:05.925Z,20.17
2023-04-15T16:50:32.736Z,21.10
2023-04-15T16:52:59.409Z,20.08
2023-04-15T16:55:26.234Z,20.48
2023-04-15T16:58:01.642Z,20.30
2023-04-15T17:00:31.453Z,19.23
2023-04-15T17:02:58.939Z,20.30
2023-04-15T17:05:27.612Z,23.13
2023-04-15T17:07:54.628Z,21.17
2023-04-15T17:10:21.312Z,19.08
2023-04-15T17:12:48.070Z,20.95
2023-04-15T17:15:14.740Z,18.90
2023-04-15T17:17:41.470Z,19.88
2023-04-15T17:20:08.411Z,19.92
2023-04-15T17:22:35.147Z,19.33
2023-04-15T17:25:02.125Z,18.58
2023-04-15T17:27:29.848Z,21.67
2023-04-15T17:29:56.917Z,20.83
2023-04-15T17:32:25.249Z,20.00
2023-04-15T17:34:52.018Z,19.73
2023-04-15T17:37:18.742Z,20.70
2023-04-15T17:39:45.745Z,21.52
2023-04-15T17:42:13.340Z,21.55
2023-04-15T17:44:40.059Z,22.48
2023-04-15T17:47:06.803Z,22.15
2023-04-15T17:49:34.242Z,21.90
2023-04-15T17:52:01.180Z,24.67
2023-04-15T17:54:28.093Z,19.58
2023-04-15T17:56:54.941Z,22.70
2023-04-15T17:59:21.578Z,22.35
2023-04-15T18:01:48.430Z,20.88
2023-04-15T18:04:15.758Z,21.13
2023-04-15T18:06:42.723Z,23.58
2023-04-15T18:09:09.404Z,21.15
2023-04-15T18:11:38.997Z,22.67
2023-04-15T18:14:05.897Z,20.48
2023-04-15T18:16:32.776Z,19.98
2023-04-15T18:18:59.587Z,19.33
2023-04-15T18:21:27.092Z,19.63
2023-04-15T18:23:53.771Z,18.85
2023-04-15T18:26:21.833Z,21.13
2023-04-15T18:28:48.555Z,21.23
2023-04-15T18:31:15.599Z,21.40
2023-04-15T18:33:42.450Z,22.23
2023-04-15T18:36:10.280Z,21.08
2023-04-15T18:38:36.967Z,20.08
2023-04-15T18:41:05.316Z,21.02
2023-04-15T18:43:32.443Z,19.83
2023-04-15T18:46:00.053Z,21.42
2023-04-15T18:48:27.244Z,22.38
2023-04-15T18:50:54.195Z,21.20
2023-04-15T18:53:21.351Z,19.00
2023-04-15T18:55:48.013Z,21.45
2023-04-15T18:58:14.607Z,19.98
2023-04-15T19:00:43.715Z,19.45
2023-04-15T19:03:11.436Z,22.65
2023-04-15T19:05:38.307Z,19.95
2023-04-15T19:08:05.008Z,20.85
2023-04-15T19:10:31.700Z,18.42
2023-04-15T19:12:58.288Z,19.40
2023-04-15T19:15:24.928Z,21.13
2023-04-15T19:17:51.516Z,22.05
2023-04-15T19:20:18.227Z,17.50
2023-04-15T19:22:45.151Z,18.92
2023-04-15T19:25:11.850Z,23.08
2023-04-15T19:27:38.488Z,19.98
2023-04-15T19:30:06.575Z,19.27
2023-04-15T19:32:34.669Z,17.52
2023-04-15T19:35:01.580Z,19.67
2023-04-15T19:37:28.264Z,18.85
2023-04-15T19:39:56.603Z,20.60
2023-04-15T19:42:23.251Z,19.45
2023-04-15T19:44:49.896Z,19.38
2023-04-15T19:47:16.682Z,19.48
2023-04-15T19:49:43.508Z,18.60
2023-04-15T19:52:10.171Z,23.00
2023-04-15T19:54:37.110Z,17.23
2023-04-15T19:57:03.817Z,18.13
2023-04-15T19:59:30.459Z,21.88
2023-04-15T20:01:57.379Z,20.00
2023-04-15T20:04:24.079Z,18.80
2023-04-15T20:06:50.935Z,18.10
2023-04-15T20:09:17.586Z,20.27
2023-04-15T20:12:47.751Z,21.30
2023-04-15T20:14:30.983Z,21.27
2023-04-15T20:16:57.637Z,19.33
2023-04-15T20:19:24.318Z,16.83
2023-04-15T20:21:52.088Z,19.25
2023-04-15T20:24:20.233Z,19.35
2023-04-15T20:26:47.183Z,17.90
2023-04-15T20:29:14.090Z,20.35
2023-04-15T20:31:41.077Z,20.67
2023-04-15T20:34:09.537Z,19.30
2023-04-15T20:36:38.022Z,19.98
2023-04-15T20:39:04.906Z,18.63
2023-04-15T20:41:31.712Z,20.60
2023-04-15T20:43:58.322Z,20.20
2023-04-15T20:46:27.301Z,19.08
2023-04-15T20:48:54.696Z,19.55
2023-04-15T20:51:21.374Z,21.35
2023-04-15T20:53:48.079Z,18.73
2023-04-15T20:56:14.696Z,21.85
2023-04-15T20:58:41.317Z,19.38
2023-04-15T21:01:08.004Z,21.60
2023-04-15T21:03:35.000Z,21.35
2023-04-15T21:06:01.842Z,21.90
2023-04-15T21:08:31.546Z,20.40
2023-04-15T21:10:58.435Z,19.40
2023-04-15T21:13:25.221Z,21.15
2023-04-15T21:15:54.059Z,23.50
2023-04-15T21:18:21.872Z,19.23
2023-04-15T21:21:01.877Z,21.73
2023-04-15T21:23:29.827Z,21.67
2023-04-15T21:25:57.201Z,20.70
2023-04-15T21:28:23.809Z,23.50
2023-04-15T21:30:50.691Z,22.92
2023-04-15T21:33:20.251Z,23.63
2023-04-15T21:35:46.898Z,21.77
2023-04-15T21:38:14.118Z,20.60
2023-04-15T21:40:41.102Z,21.75
2023-04-15T21:43:08.067Z,18.65
2023-04-15T21:45:35.971Z,20.48
2023-04-15T21:48:07.744Z,24.50
2023-04-15T21:50:38.000Z,20.85
2023-04-15T21:53:07.263Z,21.23
2023-04-15T21:55:33.970Z,22.58
2023-04-15T21:58:00.608Z,22.98
2023-04-15T22:00:27.646Z,21.05
2023-04-15T22:02:54.433Z,20.60
2023-04-15T22:05:21.360Z,20.45
2023-04-15T22:07:48.031Z,20.65
2023-04-15T22:10:14.705Z,19.48
2023-04-15T22:12:44.590Z,22.77
2023-04-15T22:15:11.334Z,20.98
2023-04-15T22:17:38.158Z,23.60
2023-04-15T22:20:05.254Z,21.48
2023-04-15T22:22:43.562Z,21.13
2023-04-15T22:25:11.463Z,21.33
2023-04-15T22:27:38.116Z,22.52
2023-04-15T22:30:05.602Z,21.88
2023-04-15T22:32:32.238Z,20.38
2023-04-15T22:34:58.865Z,22.52
2023-04-15T22:37:25.583Z,23.25
2023-04-15T22:39:52.220Z,22.70
2023-04-15T22:42:18.834Z,22.92
2023-04-15T22:44:45.610Z,22.20
2023-04-15T22:47:12.249Z,22.80
2023-04-15T22:49:39.488Z,22.48
2023-04-15T22:52:06.453Z,21.92
2023-04-15T22:54:33.771Z,23.38
2023-04-15T22:57:01.063Z,23.08
2023-04-15T22:59:27.740Z,23.08
2023-04-15T23:01:54.642Z,23.67
2023-04-15T23:04:23.390Z,24.67
2023-04-15T23:06:51.179Z,25.15
2023-04-15T23:09:18.188Z,22.88
2023-04-15T23:11:44.764Z,24.30
2023-04-15T23:14:11.382Z,23.00
2023-04-15T23:16:38.089Z,24.17
2023-04-15T23:19:04.733Z,22.75
2023-04-15T23:21:31.459Z,21.73
2023-04-15T23:23:58.101Z,23.40
2023-04-15T23:26:24.818Z,22.95
2023-04-15T23:28:51.404Z,23.30
2023-04-15T23:31:18.012Z,22.88
2023-04-15T23:33:44.634Z,22.33
2023-04-15T23:36:11.258Z,21.40
2023-04-15T23:38:38.938Z,23.58
2023-04-15T23:41:05.610Z,22.00
2023-04-15T23:43:32.287Z,24.65
2023-04-15T23:45:58.924Z,23.17
2023-04-15T23:48:25.564Z,24.85
2023-04-15T23:50:52.254Z,22.42
2023-04-15T23:53:19.010Z,24.50
2023-04-15T23:55:45.687Z,21.05
2023-04-15T23:58:12.301Z,23.95
